Immokalee, FL

2:13 PM EDT en Octubre 30, 2014 (GMT -0400)
Florida Specialties | Change Station
CLOSE
Current Station
Estación meteorológica personal
Location: Immokalee, FL
Altura: 26 ft
Estaciones meteorológicas cercanas

Alt 26 ft 26.37 °N, 81.30 °W | Updated 4 minutes ago

Despejado
Despejado
85.2 ° F
Sensación térmica 87 ° F
N
2.0
Viento Variable Viento desde NNE
Gusts 14.0 mph

Hoy
Alta -- | Baja -- ° F
--% Posibilidad de precipitaciones
Ayer
Alta -- | Baja -- ° F
Precip. -- pul
7:33 AM 6:44 PM
Creciente, 46% visible
Presión 29.92 pul
Visibilidad 7.0 Millas
Nubes Baja 5000 ft
Índice de calor 87 ° F
Punto de rocío 66 ° F
Humedad 52%
Precipitaciones 0.00 pul
Espesor de la nieve No disponible.
UV 2.5 de una escala de 12
Polen 3.00 de una escala de 12
Calidad del aire No disponible.
Flu Activity No disponible.
METAR KIMM 301815Z AUTO 12005KT 7SM FEW050 32/18 A2992 RMK A01 P000

More Conditions Fewer Conditions

Presión 29.92 pul
Visibilidad 7.0 Millas
Nubes Baja 5000 ft
Índice de calor 87 ° F
Punto de rocío 66 ° F
Humedad 52%
Precipitaciones 0.00 pul
Espesor de la nieve No disponible.
UV 2.5 de una escala de 12
Polen 3.00 de una escala de 12
Calidad del aire No disponible.
Flu Activity No disponible.
METAR KIMM 301815Z AUTO 12005KT 7SM FEW050 32/18 A2992 RMK A01 P000

More Conditions Fewer Conditions

10-Day Weather Forecast

Almanac

Astronomía

Oct. 30, 2014 Salida Puesta
Hora real
Crepúsculo civil
Crepúsculo náutico
Crepúsculo astronómico
Luna
Horas de luz
Horas de luz
Tomorrow will be .
, % of the Moon is Illuminated

Extremos de hoy

Máximos del estado Bajos del estado

Community

WunderPhotos

Upload Photos

1,766,417 ¡fotos cargadas!

WunderBlogs® & News

Nearby

Calidad del aire

  Calidad del aire Índice AQ Contaminante
Not available.

Grosos de nieve

Estación Profundido Altura

Actividad de terremotos

Ciudad Distance Mag. Tiempo y dato
Magnitud mínima muestra es 2,5.

Temperaturas de aguas costeras

Lugar Temperatura

Estaciones meteorológicas cercanas